Time;durP1;ratioP1;P1;durP2;ratioP2;P2;SDS_P1;SDS_P2;PMS_P1;PMS_P2;Temp;Humidity;BMP_temperature;BMP_pressure;BME280_temperature;BME280_humidity;BME280_pressure;Samples;Min_cycle;Max_cycle;Signal;HPM_P1;HPM_P2
2021/05/10 00:01:13;;;;;;;15.93;9.27;;;9.70;58.10;;;;;;5157770;27;20076;-71
2021/05/10 00:03:39;;;;;;;18.13;10.45;;;9.70;58.60;;;;;;5158125;27;20030;-71
2021/05/10 00:06:05;;;;;;;16.33;9.98;;;9.70;59.00;;;;;;5157708;27;20026;-71
2021/05/10 00:08:31;;;;;;;14.45;8.68;;;9.60;59.30;;;;;;5158026;27;20054;-71
2021/05/10 00:10:57;;;;;;;14.43;8.00;;;9.60;59.80;;;;;;5158034;27;20115;-71
2021/05/10 00:13:23;;;;;;;14.02;9.38;;;9.60;60.30;;;;;;5158215;27;20022;-71
2021/05/10 00:15:49;;;;;;;17.88;8.70;;;9.60;60.80;;;;;;5157552;27;20019;-71
2021/05/10 00:18:16;;;;;;;12.13;7.85;;;9.60;61.40;;;;;;5158115;27;20114;-71
2021/05/10 00:20:44;;;;;;;11.13;7.85;;;9.60;62.00;;;;;;5157124;27;20373;-71
2021/05/10 00:23:11;;;;;;;12.52;8.20;;;9.50;62.80;;;;;;5157496;27;20069;-71
2021/05/10 00:25:38;;;;;;;14.07;8.20;;;9.50;63.60;;;;;;5157640;27;20453;-72
2021/05/10 00:28:04;;;;;;;12.15;8.30;;;9.50;64.10;;;;;;5157230;27;20046;-72
2021/05/10 00:30:31;;;;;;;11.85;8.43;;;9.50;64.70;;;;;;5157003;27;20037;-71
2021/05/10 00:32:57;;;;;;;12.38;7.88;;;9.50;65.40;;;;;;5157274;27;20425;-71
2021/05/10 00:35:24;;;;;;;11.88;8.32;;;9.50;65.80;;;;;;5157045;27;20117;-71
2021/05/10 00:37:50;;;;;;;10.50;6.93;;;9.50;66.50;;;;;;5138950;27;20371;-71
2021/05/10 00:40:18;;;;;;;11.50;7.75;;;9.50;67.00;;;;;;5157314;27;20468;-71
2021/05/10 00:42:45;;;;;;;10.43;7.30;;;9.50;67.50;;;;;;5157112;27;20030;-72
2021/05/10 00:45:12;;;;;;;13.27;7.75;;;9.40;67.90;;;;;;5157115;27;20380;-71
2021/05/10 00:47:38;;;;;;;11.88;7.47;;;9.40;68.30;;;;;;5157161;27;20405;-71
2021/05/10 00:50:07;;;;;;;11.35;7.75;;;9.50;68.50;;;;;;5158001;27;20376;-71
2021/05/10 00:52:33;;;;;;;13.23;7.97;;;9.40;68.70;;;;;;5157288;27;20135;-73
2021/05/10 00:54:59;;;;;;;11.30;8.00;;;9.40;68.80;;;;;;5156918;27;20029;-71
2021/05/10 00:57:27;;;;;;;12.50;8.30;;;9.40;69.00;;;;;;5157063;27;20018;-72
2021/05/10 00:59:54;;;;;;;12.85;8.90;;;9.40;69.30;;;;;;5156591;27;20160;-71
2021/05/10 01:02:19;;;;;;;11.48;7.38;;;9.40;69.40;;;;;;5155628;27;20033;-71
2021/05/10 01:04:45;;;;;;;11.65;8.50;;;9.40;69.60;;;;;;5156633;27;20018;-71
2021/05/10 01:07:12;;;;;;;13.00;7.93;;;9.40;69.80;;;;;;5156671;27;20452;-72
2021/05/10 01:09:38;;;;;;;12.90;8.43;;;9.40;70.20;;;;;;5156284;27;20476;-72
2021/05/10 01:12:05;;;;;;;12.98;7.82;;;9.30;70.30;;;;;;5156529;27;20023;-72
2021/05/10 01:14:30;;;;;;;11.10;7.68;;;9.30;70.50;;;;;;5137893;27;20030;-72
2021/05/10 01:16:56;;;;;;;14.27;8.73;;;9.30;70.60;;;;;;5156347;27;20456;-72
2021/05/10 01:19:23;;;;;;;14.07;8.18;;;9.30;70.80;;;;;;5156350;27;20062;-71
2021/05/10 01:21:50;;;;;;;12.98;8.40;;;9.30;71.00;;;;;;5156292;27;20071;-71
2021/05/10 01:24:17;;;;;;;13.93;8.60;;;9.20;71.80;;;;;;5156315;27;20023;-72
2021/05/10 01:26:43;;;;;;;12.93;8.00;;;9.20;71.20;;;;;;5156277;27;20094;-71
2021/05/10 01:29:09;;;;;;;11.82;7.70;;;9.20;71.40;;;;;;5156444;27;20018;-71
2021/05/10 01:31:34;;;;;;;11.82;7.72;;;9.20;71.20;;;;;;5155833;27;20105;-71
2021/05/10 01:34:00;;;;;;;12.50;8.15;;;9.20;71.10;;;;;;5156146;27;20451;-72
2021/05/10 01:36:26;;;;;;;10.68;7.75;;;9.10;71.30;;;;;;5156654;27;20023;-72
2021/05/10 01:38:52;;;;;;;14.93;7.72;;;9.10;71.50;;;;;;5155619;27;20022;-71
2021/05/10 01:41:17;;;;;;;11.50;8.15;;;9.10;71.60;;;;;;5155744;27;20050;-72
2021/05/10 01:43:44;;;;;;;11.18;6.38;;;9.10;71.70;;;;;;5137414;27;20114;-71
2021/05/10 01:46:09;;;;;;;9.70;6.28;;;9.10;70.70;;;;;;5155904;27;20030;-72
2021/05/10 01:48:35;;;;;;;12.13;7.82;;;9.00;69.60;;;;;;5156387;27;20053;-72
2021/05/10 01:51:01;;;;;;;9.48;6.63;;;9.00;69.60;;;;;;5156070;27;20038;-72
2021/05/10 01:53:28;;;;;;;11.68;7.30;;;8.90;69.80;;;;;;5156085;27;20025;-72
2021/05/10 01:55:53;;;;;;;13.02;7.97;;;8.90;70.10;;;;;;5156310;27;20106;-72
2021/05/10 01:58:19;;;;;;;9.95;7.15;;;8.80;69.70;;;;;;5155707;27;20062;-71
2021/05/10 02:00:47;;;;;;;14.07;8.15;;;8.80;69.20;;;;;;5155599;27;20039;-71
2021/05/10 02:03:14;;;;;;;12.70;8.02;;;8.80;69.30;;;;;;5155586;27;20023;-72
2021/05/10 02:05:41;;;;;;;11.98;7.50;;;8.80;70.00;;;;;;5155558;27;20027;-71
2021/05/10 02:08:09;;;;;;;11.52;7.85;;;8.80;69.90;;;;;;5155265;27;20027;-71
2021/05/10 02:10:42;;;;;;;10.93;7.32;;;8.70;69.60;;;;;;5155759;27;20026;-72
2021/05/10 02:13:10;;;;;;;10.65;6.53;;;8.70;69.40;;;;;;5155100;27;20049;-72
2021/05/10 02:15:38;;;;;;;12.35;8.63;;;8.60;69.30;;;;;;5155358;27;20422;-72
2021/05/10 02:18:05;;;;;;;13.20;8.63;;;8.60;69.90;;;;;;5155411;27;20061;-71
2021/05/10 02:20:32;;;;;;;13.40;9.18;;;8.60;70.60;;;;;;5155226;27;20421;-71
2021/05/10 02:23:07;;;;;;;13.52;8.90;;;8.60;70.90;;;;;;5155296;27;20031;-72
2021/05/10 02:25:41;;;;;;;13.90;7.88;;;8.70;71.10;;;;;;5155414;27;20353;-72
2021/05/10 02:28:09;;;;;;;14.40;8.25;;;8.70;70.70;;;;;;5155772;27;20026;-72
2021/05/10 02:30:36;;;;;;;14.35;8.90;;;8.70;70.10;;;;;;5155137;27;20484;-71
2021/05/10 02:33:05;;;;;;;26.85;14.50;;;8.70;69.40;;;;;;5136747;27;20027;-71
2021/05/10 02:35:31;;;;;;;26.42;16.13;;;8.70;68.70;;;;;;5155177;27;20052;-72
2021/05/10 02:37:57;;;;;;;25.67;14.30;;;8.60;68.20;;;;;;5155734;27;20058;-72
2021/05/10 02:40:22;;;;;;;21.60;12.88;;;8.60;67.90;;;;;;5155107;27;20027;-72
2021/05/10 02:42:48;;;;;;;25.98;13.13;;;8.50;67.60;;;;;;5155715;27;20039;-72
2021/05/10 02:45:15;;;;;;;27.20;13.77;;;8.50;67.30;;;;;;5155127;27;20424;-72
2021/05/10 02:47:42;;;;;;;24.50;12.95;;;8.50;67.00;;;;;;5155192;27;20015;-72
2021/05/10 02:50:11;;;;;;;23.45;12.05;;;8.50;66.80;;;;;;5136629;27;20135;-72
2021/05/10 02:52:37;;;;;;;21.55;11.90;;;8.60;66.70;;;;;;5155089;27;20452;-72
2021/05/10 02:55:07;;;;;;;21.92;12.00;;;8.60;66.50;;;;;;5155026;27;20045;-72
2021/05/10 02:57:34;;;;;;;20.33;11.88;;;8.60;66.30;;;;;;5154995;27;20027;-71
2021/05/10 03:00:00;;;;;;;21.35;11.68;;;8.70;66.40;;;;;;5154629;27;20549;-72
2021/05/10 03:02:26;;;;;;;20.67;11.18;;;8.80;66.80;;;;;;5154925;27;20019;-71
2021/05/10 03:04:52;;;;;;;17.10;9.70;;;8.80;67.00;;;;;;5154696;27;20052;-71
2021/05/10 03:07:17;;;;;;;16.08;10.02;;;8.90;68.40;;;;;;5155083;27;20372;-71
2021/05/10 03:09:44;;;;;;;16.60;9.40;;;9.00;68.90;;;;;;5155069;27;20023;-72
2021/05/10 03:12:09;;;;;;;13.48;8.57;;;9.10;69.80;;;;;;5154876;27;20023;-72
2021/05/10 03:14:35;;;;;;;16.45;9.32;;;9.20;70.60;;;;;;5154456;27;20384;-72
2021/05/10 03:17:02;;;;;;;19.02;11.60;;;9.30;70.90;;;;;;5154868;27;20026;-71
2021/05/10 03:19:27;;;;;;;15.20;10.15;;;9.40;70.30;;;;;;5154766;27;20031;-72
2021/05/10 03:21:53;;;;;;;19.85;11.73;;;9.50;70.20;;;;;;5155060;27;20030;-72
2021/05/10 03:24:19;;;;;;;19.52;11.25;;;9.50;69.60;;;;;;5155338;27;20030;-71
2021/05/10 03:26:44;;;;;;;16.92;10.82;;;9.60;68.20;;;;;;5158026;27;20107;-71
2021/05/10 03:29:10;;;;;;;21.00;12.18;;;9.60;67.20;;;;;;5157915;27;20031;-71
2021/05/10 03:31:36;;;;;;;20.02;12.45;;;9.60;66.60;;;;;;5158423;27;20019;-71
2021/05/10 03:34:03;;;;;;;20.20;10.93;;;9.60;66.10;;;;;;5158444;27;20109;-73
2021/05/10 03:36:29;;;;;;;25.55;12.95;;;9.60;65.90;;;;;;5158173;27;20507;-72
2021/05/10 03:38:55;;;;;;;23.00;13.13;;;9.60;65.70;;;;;;5158051;27;20062;-72
2021/05/10 03:41:23;;;;;;;26.08;14.40;;;9.70;65.50;;;;;;5158042;27;20054;-72
2021/05/10 03:43:50;;;;;;;27.02;14.82;;;9.70;65.50;;;;;;5158490;27;20023;-72
2021/05/10 03:46:15;;;;;;;26.85;15.55;;;9.70;65.50;;;;;;5158136;27;20026;-72
2021/05/10 03:48:41;;;;;;;26.20;14.32;;;9.70;65.40;;;;;;5158019;27;20031;-76
2021/05/10 03:51:07;;;;;;;26.23;14.50;;;9.80;65.40;;;;;;5158132;27;20473;-72
2021/05/10 03:53:33;;;;;;;25.55;13.88;;;9.80;65.30;;;;;;5140271;27;20022;-72
2021/05/10 03:55:59;;;;;;;22.80;13.30;;;9.80;65.20;;;;;;5158317;27;20110;-72
2021/05/10 03:58:25;;;;;;;24.40;14.50;;;9.90;65.30;;;;;;5158567;27;20076;-71
2021/05/10 04:00:52;;;;;;;26.75;14.85;;;9.90;65.40;;;;;;5157919;27;20410;-71
2021/05/10 04:03:19;;;;;;;24.85;13.15;;;10.00;65.40;;;;;;5158428;27;20030;-71
2021/05/10 04:11:02;;;;;;;30.75;15.70;;;10.10;65.50;;;;;;5158177;27;20078;-72
2021/05/10 04:16:00;;;;;;;30.77;15.98;;;10.20;65.60;;;;;;5157893;27;20031;-72
2021/05/10 04:18:25;;;;;;;25.67;15.23;;;10.30;65.80;;;;;;5157391;27;20070;-73
2021/05/10 04:20:51;;;;;;;33.00;16.45;;;10.30;66.00;;;;;;5139678;27;20038;-72
2021/05/10 04:23:19;;;;;;;27.25;15.43;;;10.40;66.10;;;;;;5157203;27;20022;-73
2021/05/10 04:25:46;;;;;;;31.10;16.23;;;10.50;66.40;;;;;;5157427;27;20384;-72
2021/05/10 04:28:13;;;;;;;26.08;15.00;;;10.50;66.40;;;;;;5157653;27;20035;-71
2021/05/10 04:30:39;;;;;;;27.88;15.05;;;10.60;66.40;;;;;;5157269;27;20071;-72
2021/05/10 04:33:05;;;;;;;27.75;15.27;;;10.70;66.40;;;;;;5157019;27;20369;-72
2021/05/10 04:35:32;;;;;;;25.08;15.60;;;10.80;66.30;;;;;;5157920;27;20030;-72
2021/05/10 04:37:59;;;;;;;24.23;13.75;;;11.00;66.30;;;;;;5156763;27;20637;-72
2021/05/10 04:40:24;;;;;;;22.17;13.20;;;11.00;66.10;;;;;;5157447;27;20065;-71
2021/05/10 04:42:50;;;;;;;21.48;13.27;;;11.20;65.90;;;;;;5157968;27;20070;-72
2021/05/10 04:45:16;;;;;;;20.40;12.02;;;11.30;65.60;;;;;;5157068;27;20019;-71
2021/05/10 04:47:42;;;;;;;21.65;12.57;;;11.40;65.30;;;;;;5157278;27;20102;-72
2021/05/10 04:50:10;;;;;;;21.45;12.52;;;11.60;65.00;;;;;;5157681;27;20031;-71
2021/05/10 04:52:37;;;;;;;20.58;11.90;;;11.70;64.70;;;;;;5156827;27;20109;-74
2021/05/10 04:55:08;;;;;;;15.73;9.18;;;11.80;64.20;;;;;;5156842;27;20073;-72
2021/05/10 04:57:34;;;;;;;18.70;9.60;;;11.90;63.00;;;;;;5156725;27;20071;-72
2021/05/10 05:00:00;;;;;;;21.67;12.00;;;12.00;62.40;;;;;;5157192;27;20043;-72
2021/05/10 05:02:26;;;;;;;18.95;11.20;;;12.10;62.10;;;;;;5156688;27;20023;-72
2021/05/10 05:04:52;;;;;;;18.50;10.27;;;12.20;61.80;;;;;;5156692;27;20019;-73
2021/05/10 05:07:18;;;;;;;19.70;9.75;;;12.40;61.30;;;;;;5156697;27;20076;-72
2021/05/10 05:09:44;;;;;;;13.95;8.55;;;12.40;60.50;;;;;;5156292;27;20079;-73
2021/05/10 05:12:10;;;;;;;17.13;8.88;;;12.50;59.80;;;;;;5156088;27;20023;-72
2021/05/10 05:14:36;;;;;;;13.52;9.20;;;12.60;59.20;;;;;;5155270;27;20027;-72
2021/05/10 05:17:02;;;;;;;14.32;8.25;;;12.70;58.70;;;;;;5156616;27;20023;-72
2021/05/10 05:19:28;;;;;;;13.02;7.65;;;12.80;58.30;;;;;;5156574;27;20406;-72
2021/05/10 05:21:53;;;;;;;11.52;7.10;;;12.90;57.60;;;;;;5156226;27;20106;-72
2021/05/10 05:24:19;;;;;;;10.40;6.45;;;13.10;56.90;;;;;;5156512;27;20019;-72
2021/05/10 05:26:45;;;;;;;13.93;7.15;;;13.20;56.20;;;;;;5156729;27;20046;-73
2021/05/10 05:29:10;;;;;;;10.65;6.15;;;13.30;55.60;;;;;;5156156;27;20062;-73
2021/05/10 05:31:36;;;;;;;13.23;5.72;;;13.40;54.60;;;;;;5156791;27;20405;-71
2021/05/10 05:34:03;;;;;;;10.52;6.20;;;13.50;53.90;;;;;;5156051;27;20037;-72
2021/05/10 05:36:29;;;;;;;7.60;5.25;;;13.60;53.00;;;;;;5155614;27;20034;-72
2021/05/10 05:38:55;;;;;;;7.30;4.95;;;13.70;52.20;;;;;;5154614;27;20449;-73
2021/05/10 05:41:21;;;;;;;5.32;4.10;;;13.80;51.00;;;;;;5155443;27;20137;-73
2021/05/10 05:43:46;;;;;;;7.78;4.07;;;13.90;50.00;;;;;;5156503;27;20033;-73
2021/05/10 05:46:14;;;;;;;7.68;5.30;;;13.90;49.20;;;;;;5155264;27;20479;-72
2021/05/10 05:48:40;;;;;;;10.13;5.68;;;14.00;49.10;;;;;;5136324;27;20065;-71
2021/05/10 05:51:10;;;;;;;11.70;6.97;;;14.10;49.00;;;;;;5155644;27;20054;-71
2021/05/10 05:53:35;;;;;;;15.38;7.30;;;14.20;49.30;;;;;;5155706;27;20054;-73
2021/05/10 05:56:01;;;;;;;10.98;6.60;;;14.30;50.00;;;;;;5156188;27;20081;-72
2021/05/10 05:58:27;;;;;;;17.38;7.25;;;14.40;50.50;;;;;;5155464;27;20030;-72
2021/05/10 06:00:53;;;;;;;9.40;5.75;;;14.50;50.50;;;;;;5155511;27;20038;-72
2021/05/10 06:03:20;;;;;;;5.63;4.40;;;14.50;50.20;;;;;;5155517;27;20026;-72
2021/05/10 06:05:46;;;;;;;7.60;4.57;;;14.60;49.90;;;;;;5155444;27;20019;-73
2021/05/10 06:08:13;;;;;;;8.93;4.65;;;14.70;49.60;;;;;;5155490;27;20027;-72
2021/05/10 06:10:39;;;;;;;7.88;4.70;;;14.70;49.10;;;;;;5155117;27;20464;-72
2021/05/10 06:13:04;;;;;;;9.68;5.68;;;14.80;48.90;;;;;;5154290;27;20037;-74
2021/05/10 06:15:30;;;;;;;9.57;5.40;;;14.80;48.70;;;;;;5155689;27;20523;-74
2021/05/10 06:17:56;;;;;;;13.70;4.90;;;14.90;49.20;;;;;;5155296;27;20409;-72
2021/05/10 06:20:24;;;;;;;8.02;5.32;;;14.90;48.40;;;;;;5136708;27;20043;-71
2021/05/10 06:22:50;;;;;;;7.22;4.90;;;15.00;48.10;;;;;;5155283;27;20399;-72
2021/05/10 06:25:16;;;;;;;7.80;4.68;;;15.10;47.90;;;;;;5136426;27;20022;-72
2021/05/10 06:27:42;;;;;;;6.32;4.45;;;15.20;47.50;;;;;;5155538;27;20054;-72
2021/05/10 06:30:12;;;;;;;5.10;3.95;;;15.20;47.00;;;;;;5155439;27;20083;-72
2021/05/10 06:32:39;;;;;;;6.70;4.18;;;15.30;46.60;;;;;;5155770;27;20031;-71
2021/05/10 06:35:06;;;;;;;7.00;4.57;;;15.30;46.30;;;;;;5154814;27;20456;-71
2021/05/10 06:37:31;;;;;;;5.65;4.10;;;15.40;46.20;;;;;;5136207;27;20026;-72
2021/05/10 06:39:58;;;;;;;6.95;4.30;;;15.50;46.00;;;;;;5154948;27;20037;-73
2021/05/10 06:42:25;;;;;;;7.65;4.68;;;15.50;45.60;;;;;;5155239;27;20033;-71
2021/05/10 06:44:51;;;;;;;8.40;4.20;;;15.50;45.30;;;;;;5155571;27;20023;-73
2021/05/10 06:47:17;;;;;;;6.15;4.22;;;15.60;45.30;;;;;;5137365;27;20162;-72
2021/05/10 06:49:43;;;;;;;5.68;4.05;;;15.60;45.00;;;;;;5136398;27;20093;-72
2021/05/10 06:52:08;;;;;;;6.63;4.40;;;15.70;44.80;;;;;;5154935;27;20023;-72
2021/05/10 06:54:34;;;;;;;6.63;3.38;;;15.70;44.20;;;;;;5155087;27;20046;-72
2021/05/10 06:57:01;;;;;;;7.15;4.05;;;15.70;43.10;;;;;;5154813;27;20031;-73
2021/05/10 06:59:27;;;;;;;6.20;3.38;;;15.70;42.40;;;;;;5156022;27;20031;-73
2021/05/10 07:01:52;;;;;;;9.25;3.70;;;15.80;42.00;;;;;;5159430;27;20102;-74
2021/05/10 07:04:18;;;;;;;6.63;2.83;;;15.80;41.40;;;;;;5158698;27;20023;-72
2021/05/10 07:06:44;;;;;;;12.27;3.47;;;15.80;41.10;;;;;;5158882;27;20026;-73
2021/05/10 07:09:10;;;;;;;4.65;2.45;;;15.90;40.50;;;;;;5158886;27;20050;-73
2021/05/10 07:11:37;;;;;;;8.10;2.60;;;16.00;40.20;;;;;;5159034;27;20046;-73
2021/05/10 07:14:03;;;;;;;4.53;2.72;;;16.00;39.90;;;;;;5158414;27;20026;-74
2021/05/10 07:16:29;;;;;;;2.92;1.80;;;16.10;39.50;;;;;;5158994;27;20038;-73
2021/05/10 07:18:55;;;;;;;7.05;2.35;;;16.10;39.00;;;;;;5158501;27;20030;-73
2021/05/10 07:21:23;;;;;;;6.30;2.85;;;16.20;38.70;;;;;;5158829;27;20445;-75
2021/05/10 07:23:49;;;;;;;5.70;2.95;;;16.20;38.60;;;;;;5158671;27;20023;-75
2021/05/10 07:26:15;;;;;;;7.15;3.13;;;16.30;39.00;;;;;;5140359;27;20457;-74
2021/05/10 07:28:41;;;;;;;6.13;2.78;;;16.30;39.10;;;;;;5158566;27;20018;-74
2021/05/10 07:31:07;;;;;;;7.10;2.83;;;16.30;38.80;;;;;;5158448;27;20031;-75
2021/05/10 07:33:33;;;;;;;8.70;2.70;;;16.30;38.60;;;;;;5158588;27;20018;-74
2021/05/10 07:35:58;;;;;;;4.68;2.63;;;16.40;38.50;;;;;;5158125;27;20026;-74
2021/05/10 07:38:24;;;;;;;7.70;2.63;;;16.40;38.40;;;;;;5158551;27;20103;-75
2021/05/10 07:40:50;;;;;;;5.82;2.90;;;16.40;38.60;;;;;;5158244;27;20380;-74
2021/05/10 07:43:16;;;;;;;4.68;3.30;;;16.50;38.80;;;;;;5159030;27;20035;-77
2021/05/10 07:45:41;;;;;;;4.78;3.10;;;16.50;39.00;;;;;;5139619;27;20373;-73
2021/05/10 07:48:07;;;;;;;4.63;2.75;;;16.60;38.90;;;;;;5157882;27;20029;-74
2021/05/10 07:50:33;;;;;;;9.80;2.60;;;16.70;38.50;;;;;;5158120;27;20033;-73
2021/05/10 07:52:59;;;;;;;4.65;3.00;;;16.70;38.20;;;;;;5157384;27;20027;-75
2021/05/10 07:55:25;;;;;;;4.80;3.00;;;16.90;38.00;;;;;;5158349;27;20019;-73
2021/05/10 07:57:53;;;;;;;3.95;2.83;;;17.00;38.00;;;;;;5157579;27;20019;-74
2021/05/10 08:03:18;;;;;;;3.80;2.55;;;17.30;37.30;;;;;;5139407;27;20061;-73
2021/05/10 08:05:44;;;;;;;3.47;2.80;;;17.50;37.10;;;;;;5157704;27;20029;-73
2021/05/10 08:08:15;;;;;;;5.68;3.47;;;17.60;36.90;;;;;;5157704;27;20451;-74
2021/05/10 08:10:41;;;;;;;5.07;3.15;;;17.70;36.70;;;;;;5157143;27;20027;-73
2021/05/10 08:13:07;;;;;;;4.78;2.80;;;18.00;36.70;;;;;;5157418;27;20433;-73
2021/05/10 08:15:33;;;;;;;6.28;3.28;;;18.10;36.40;;;;;;5157887;27;20038;-72
2021/05/10 08:17:59;;;;;;;5.65;3.25;;;18.30;35.80;;;;;;5157690;27;20447;-72
2021/05/10 08:20:25;;;;;;;6.75;2.92;;;18.50;35.80;;;;;;5157929;27;20062;-73
2021/05/10 08:22:51;;;;;;;6.85;3.17;;;18.80;35.50;;;;;;5157346;27;20463;-74
2021/05/10 08:25:16;;;;;;;4.03;2.78;;;19.00;35.40;;;;;;5156355;27;20079;-73
2021/05/10 08:27:42;;;;;;;5.05;2.97;;;19.30;35.20;;;;;;5157060;27;20076;-73
2021/05/10 08:30:10;;;;;;;5.05;2.92;;;19.60;34.70;;;;;;5157568;27;20023;-75
2021/05/10 08:32:36;;;;;;;5.30;3.08;;;20.00;34.40;;;;;;5157560;27;20027;-73
2021/05/10 08:35:03;;;;;;;4.75;2.97;;;20.20;33.80;;;;;;5157508;27;20036;-73
2021/05/10 08:37:29;;;;;;;5.03;2.97;;;20.50;33.60;;;;;;5157105;27;20482;-73
2021/05/10 08:39:56;;;;;;;4.95;3.15;;;20.80;33.50;;;;;;5157161;27;20115;-73
2021/05/10 08:42:22;;;;;;;3.40;2.65;;;21.20;33.30;;;;;;5156660;27;20030;-74
2021/05/10 08:44:48;;;;;;;3.25;2.45;;;21.60;32.90;;;;;;5157029;27;20524;-74
2021/05/10 08:47:13;;;;;;;3.50;2.50;;;21.80;32.20;;;;;;5138239;27;20018;-73
2021/05/10 08:49:39;;;;;;;4.88;2.53;;;22.10;31.70;;;;;;5138167;27;20357;-74
2021/05/10 08:52:06;;;;;;;2.22;2.03;;;22.40;31.40;;;;;;5156780;27;20025;-75
2021/05/10 08:54:32;;;;;;;3.50;2.40;;;22.70;31.30;;;;;;5156918;27;20106;-74
2021/05/10 08:57:01;;;;;;;2.72;2.45;;;23.10;31.10;;;;;;5156270;27;20106;-73
2021/05/10 08:59:27;;;;;;;4.60;3.65;;;23.50;31.00;;;;;;5157476;27;20049;-74
2021/05/10 09:01:55;;;;;;;6.30;2.72;;;23.90;30.40;;;;;;5156831;27;20023;-74
2021/05/10 09:04:42;;;;;;;3.05;2.25;;;24.30;30.00;;;;;;5156473;27;20026;-73
2021/05/10 09:07:18;;;;;;;2.13;1.92;;;24.70;29.80;;;;;;5156726;27;20026;-74
2021/05/10 09:10:20;;;;;;;3.95;2.28;;;25.20;29.60;;;;;;5156764;27;20058;-76
2021/05/10 09:12:51;;;;;;;1.85;1.75;;;25.80;29.50;;;;;;5092943;28;20035;-74
2021/05/10 09:15:24;;;;;;;2.72;2.53;;;26.40;29.60;;;;;;5145752;27;20037;-74
2021/05/10 09:17:54;;;;;;;5.63;2.07;;;27.00;29.20;;;;;;5156414;27;20027;-73
2021/05/10 09:20:22;;;;;;;3.55;2.15;;;27.70;29.20;;;;;;5156301;27;20075;-74
2021/05/10 09:22:59;;;;;;;7.50;2.40;;;28.60;29.10;;;;;;5155387;27;20034;-74
2021/05/10 09:25:39;;;;;;;4.80;2.40;;;29.50;28.40;;;;;;5156917;27;20101;-74
2021/05/10 09:28:14;;;;;;;4.15;2.47;;;30.30;28.30;;;;;;5156147;27;20033;-74
2021/05/10 09:30:42;;;;;;;3.22;2.40;;;31.00;27.70;;;;;;5156152;27;20026;-73
2021/05/10 09:33:23;;;;;;;3.55;2.20;;;31.50;27.50;;;;;;5155799;27;20027;-74
2021/05/10 09:35:56;;;;;;;3.35;2.20;;;32.20;27.10;;;;;;5155967;27;20468;-74
2021/05/10 09:38:24;;;;;;;2.70;2.28;;;32.70;27.10;;;;;;5155897;27;20123;-74
2021/05/10 09:40:55;;;;;;;1.98;1.88;;;33.20;26.70;;;;;;5155949;27;20050;-76
2021/05/10 09:43:34;;;;;;;4.60;2.15;;;33.50;26.10;;;;;;5156778;27;20083;-76
2021/05/10 09:46:13;;;;;;;2.47;2.20;;;33.50;25.80;;;;;;5155380;27;20034;-74
2021/05/10 09:48:41;;;;;;;5.75;2.28;;;33.80;25.90;;;;;;5155828;27;20419;-74
2021/05/10 09:51:14;;;;;;;3.28;2.50;;;34.10;25.90;;;;;;5155737;27;20031;-75
2021/05/10 09:53:47;;;;;;;2.80;2.17;;;34.40;25.80;;;;;;5155594;27;20058;-74
2021/05/10 09:56:25;;;;;;;1.92;1.83;;;34.70;25.50;;;;;;5155432;27;20034;-73
2021/05/10 09:58:52;;;;;;;3.72;2.00;;;35.00;25.30;;;;;;5137033;27;20388;-74
2021/05/10 10:01:19;;;;;;;3.03;1.77;;;35.10;25.40;;;;;;5155380;27;20122;-74
2021/05/10 10:03:45;;;;;;;2.17;2.08;;;35.20;25.10;;;;;;5155638;27;20034;-73
2021/05/10 10:06:13;;;;;;;2.28;2.08;;;35.50;25.20;;;;;;5155728;27;20025;-76
2021/05/10 10:08:42;;;;;;;3.28;2.33;;;35.70;24.80;;;;;;5155737;27;20022;-76
2021/05/10 10:11:09;;;;;;;2.83;1.90;;;35.80;24.80;;;;;;5154960;27;20043;-74
2021/05/10 10:13:36;;;;;;;5.03;1.90;;;36.00;24.60;;;;;;5155331;27;20026;-73
2021/05/10 10:16:04;;;;;;;3.42;2.55;;;36.20;24.50;;;;;;5155422;27;20034;-73
2021/05/10 10:18:30;;;;;;;2.28;1.90;;;36.50;24.40;;;;;;5155164;27;20453;-74
2021/05/10 10:20:59;;;;;;;3.72;2.08;;;36.60;24.50;;;;;;5153888;27;20041;-73
2021/05/10 10:23:27;;;;;;;2.28;1.92;;;36.80;24.40;;;;;;5137027;27;20033;-74
2021/05/10 10:25:55;;;;;;;2.58;2.03;;;37.00;24.40;;;;;;5154122;27;20079;-73
2021/05/10 10:28:24;;;;;;;2.20;2.00;;;37.20;24.20;;;;;;5155318;27;20031;-74
2021/05/10 10:30:56;;;;;;;2.78;1.92;;;37.40;24.10;;;;;;5155354;27;20042;-73
2021/05/10 10:33:36;;;;;;;2.25;2.05;;;37.70;23.90;;;;;;5155126;27;20023;-74
2021/05/10 10:36:03;;;;;;;2.60;1.58;;;37.80;24.40;;;;;;5162628;27;20037;-74
2021/05/10 10:38:34;;;;;;;2.10;1.92;;;38.00;24.00;;;;;;5162330;27;20022;-74
2021/05/10 10:41:26;;;;;;;1.98;1.85;;;38.10;23.70;;;;;;5162073;27;20039;-74
2021/05/10 10:43:52;;;;;;;2.42;2.22;;;38.30;23.60;;;;;;5121159;27;20031;-75
2021/05/10 10:46:23;;;;;;;3.45;2.13;;;38.40;23.60;;;;;;5120763;27;20031;-74
2021/05/10 10:48:50;;;;;;;2.08;1.83;;;38.60;23.40;;;;;;5120707;27;20035;-76
2021/05/10 10:51:18;;;;;;;2.50;2.30;;;38.50;23.30;;;;;;5121349;27;20028;-74
2021/05/10 10:53:48;;;;;;;1.77;1.67;;;38.50;23.20;;;;;;5120939;27;20506;-73
2021/05/10 10:56:15;;;;;;;2.13;1.65;;;38.60;23.30;;;;;;5120601;27;20035;-74
2021/05/10 10:58:43;;;;;;;3.35;1.80;;;38.80;23.20;;;;;;5120622;27;20406;-74
2021/05/10 11:01:13;;;;;;;1.90;1.73;;;38.90;23.50;;;;;;5120566;27;20035;-74
2021/05/10 11:03:40;;;;;;;1.88;1.70;;;39.00;23.10;;;;;;5120866;27;20090;-73
2021/05/10 11:06:07;;;;;;;1.92;1.70;;;39.00;23.00;;;;;;5120755;27;20023;-74
2021/05/10 11:08:47;;;;;;;1.60;1.50;;;39.10;23.10;;;;;;5120212;27;20445;-73
2021/05/10 11:11:32;;;;;;;3.15;1.80;;;39.30;22.90;;;;;;5120776;27;20106;-74
2021/05/10 11:13:59;;;;;;;1.88;1.70;;;39.40;22.80;;;;;;5120757;28;20416;-74
2021/05/10 11:16:47;;;;;;;1.80;1.70;;;39.60;22.90;;;;;;5120553;27;20030;-75
2021/05/10 11:19:41;;;;;;;1.80;1.70;;;39.60;22.60;;;;;;5120793;27;20414;-74
2021/05/10 11:22:28;;;;;;;1.65;1.55;;;39.70;22.70;;;;;;5120566;27;20110;-74
2021/05/10 11:24:54;;;;;;;1.70;1.60;;;39.70;22.60;;;;;;5120378;28;20118;-73
2021/05/10 11:27:28;;;;;;;2.17;1.98;;;39.90;22.70;;;;;;5120346;28;20066;-75
2021/05/10 11:29:56;;;;;;;2.15;1.83;;;39.90;22.60;;;;;;5119120;28;20034;-74
2021/05/10 11:32:27;;;;;;;1.75;1.65;;;39.90;22.50;;;;;;5120977;27;20411;-74
2021/05/10 11:34:53;;;;;;;2.78;1.63;;;39.60;22.40;;;;;;5120343;27;20031;-74
2021/05/10 11:37:27;;;;;;;2.17;1.58;;;39.40;22.70;;;;;;5120246;27;20022;-74
2021/05/10 11:39:57;;;;;;;2.88;2.00;;;39.50;22.50;;;;;;5120251;27;20363;-74
2021/05/10 11:42:27;;;;;;;1.92;1.83;;;39.70;22.60;;;;;;5139050;27;20072;-73
2021/05/10 11:45:00;;;;;;;2.25;1.90;;;40.00;22.50;;;;;;5161394;27;20023;-73
2021/05/10 11:47:25;;;;;;;1.77;1.67;;;40.00;22.50;;;;;;5157310;27;20015;-74
2021/05/10 11:49:52;;;;;;;1.90;1.80;;;40.10;22.60;;;;;;5158309;27;20039;-74
2021/05/10 11:52:23;;;;;;;1.90;1.80;;;40.40;22.70;;;;;;5158598;27;20097;-74
2021/05/10 11:54:54;;;;;;;1.85;1.73;;;40.50;22.30;;;;;;5158099;27;20517;-73
2021/05/10 11:57:23;;;;;;;1.60;1.50;;;40.70;22.40;;;;;;5158190;27;20075;-74
2021/05/10 12:02:22;;;;;;;1.70;1.60;;;40.90;22.20;;;;;;5158016;27;20067;-74
2021/05/10 12:04:51;;;;;;;3.03;1.83;;;40.90;22.00;;;;;;5158251;27;20333;-74
2021/05/10 12:07:18;;;;;;;1.80;1.70;;;41.00;22.00;;;;;;5157833;27;20034;-74
2021/05/10 12:09:47;;;;;;;2.67;1.75;;;41.00;22.10;;;;;;5158097;27;20417;-74
2021/05/10 12:12:12;;;;;;;3.25;2.00;;;41.00;21.90;;;;;;5157680;27;20475;-74
2021/05/10 12:14:40;;;;;;;3.15;2.00;;;40.70;21.70;;;;;;5157417;27;20128;-74
2021/05/10 12:17:14;;;;;;;1.88;1.77;;;40.60;21.80;;;;;;5157653;27;20023;-74
2021/05/10 12:20:07;;;;;;;2.28;1.75;;;40.40;21.70;;;;;;5157522;27;20425;-73
2021/05/10 12:22:38;;;;;;;1.92;1.73;;;40.40;22.10;;;;;;5157435;27;20499;-74
2021/05/10 12:25:07;;;;;;;3.83;2.00;;;40.40;22.00;;;;;;5157626;27;20027;-74
2021/05/10 12:27:42;;;;;;;2.28;2.05;;;40.50;21.90;;;;;;5157509;27;20027;-74
2021/05/10 12:30:29;;;;;;;2.22;2.13;;;40.70;21.90;;;;;;5157425;27;20030;-74
2021/05/10 12:32:57;;;;;;;2.00;1.90;;;41.00;21.80;;;;;;5157826;27;20023;-75
2021/05/10 12:35:26;;;;;;;1.80;1.70;;;41.10;21.80;;;;;;5157364;27;20038;-74
2021/05/10 12:37:54;;;;;;;2.47;2.00;;;41.00;21.70;;;;;;5157984;27;20026;-74
2021/05/10 12:40:23;;;;;;;1.70;1.60;;;41.10;21.60;;;;;;5157178;27;20042;-74
2021/05/10 12:43:10;;;;;;;3.83;1.92;;;41.10;21.70;;;;;;5157526;27;20043;-76
2021/05/10 12:45:38;;;;;;;2.17;1.70;;;41.10;21.80;;;;;;5157088;27;20026;-74
2021/05/10 12:48:18;;;;;;;2.30;1.58;;;41.10;21.80;;;;;;5157199;27;20019;-74
2021/05/10 12:50:46;;;;;;;2.35;1.70;;;41.10;21.60;;;;;;5157058;27;20026;-75
2021/05/10 12:53:12;;;;;;;4.03;1.90;;;41.20;21.70;;;;;;5157263;27;20015;-73
2021/05/10 12:55:40;;;;;;;3.03;2.20;;;41.20;21.80;;;;;;5156983;27;20015;-74
2021/05/10 12:58:24;;;;;;;2.25;2.00;;;41.30;21.80;;;;;;5156673;27;20023;-77
2021/05/10 13:00:52;;;;;;;6.30;2.38;;;41.40;21.70;;;;;;5155839;27;20491;-75